logo
Rechercher aéroport 
image banner adimage banner adimage banner ad
image banner ad

0CA9 - Blech Ranch

Situé à Shandon, United States

ICAO - 0CA9, IATA -

Données fournies par Airmate  

Information générale

Coordonnées: N35°35'42" W120°20'20"
Élévation : 1140 feet MSL.
Variation magnétique : 15° East
Voir autres Aéroports à California

Données opérationnelles

Special qualification required
Heure actuelle UTC:
Heure actuelle locale:
Météo à : KPRB - Paso Robles Muni ( 27 km )
METAR: KPRB 281253Z AUTO 00000KT 10SM CLR 12/08 A3004 RMK AO2 SLP165 T01170083
TAF: KPRB 281148Z 2812/2912 VRB03KT P6SM SKC FM282100 30012KT P6SM SKC FM290400 30006KT P6SM SKC FM290800 VRB03KT P6SM SKC
Voir NOTAMs / SUP AIP / TFR affectant cet aéroport [VIEW]
Fréquences de communication: [VIEW]

Pistes:

Identifiant RWYQFULongueur (ft)Largeur (ft)SurfaceLDA (ft)
16330060ASPH
34330060ASPH

Coordonnées de l'aéroport

Adresse: Shandon United States

Vue satellite de 0CA9